Time;durP1;ratioP1;P1;durP2;ratioP2;P2;SDS_P1;SDS_P2;PMS_P1;PMS_P2;Temp;Humidity;BMP_temperature;BMP_pressure;BME280_temperature;BME280_humidity;BME280_pressure;Samples;Min_cycle;Max_cycle;Signal;HPM_P1;HPM_P2
2022/04/07 00:00:16;;;;;;;20.52;19.27;;;;;;;;;;5082127;28;20569;-59
2022/04/07 00:02:42;;;;;;;22.27;21.00;;;;;;;;;;5076046;28;20119;-59
2022/04/07 00:05:07;;;;;;;19.75;18.65;;;;;;;;;;5077845;28;20123;-59
2022/04/07 00:07:33;;;;;;;20.67;19.58;;;;;;;;;;5075651;28;20043;-59
2022/04/07 00:09:58;;;;;;;17.10;16.10;;;;;;;;;;5073560;28;20414;-50
2022/04/07 00:12:24;;;;;;;19.85;18.75;;;;;;;;;;5077162;28;20032;-60
2022/04/07 00:14:49;;;;;;;20.42;19.33;;;;;;;;;;5081220;28;20032;-59
2022/04/07 00:17:14;;;;;;;18.27;17.27;;;;;;;;;;5071757;28;20458;-59
2022/04/07 00:19:40;;;;;;;16.40;15.48;;;;;;;;;;5075351;28;20051;-59
2022/04/07 00:22:05;;;;;;;17.88;16.88;;;;;;;;;;5077008;28;20043;-59
2022/04/07 00:24:31;;;;;;;14.88;13.98;;;;;;;;;;5078268;28;20062;-60
2022/04/07 00:26:56;;;;;;;14.45;13.65;;;;;;;;;;5072468;28;20028;-60
2022/04/07 00:29:21;;;;;;;15.30;14.40;;;;;;;;;;5074220;28;20028;-60
2022/04/07 00:31:55;;;;;;;12.85;12.13;;;;;;;;;;5077679;28;20061;-53
2022/04/07 00:34:21;;;;;;;17.95;16.95;;;;;;;;;;5078541;28;20479;-60
2022/04/07 00:36:46;;;;;;;15.13;14.23;;;;;;;;;;5077591;28;20074;-59
2022/04/07 00:39:11;;;;;;;16.58;15.68;;;;;;;;;;5075650;28;20361;-59
2022/04/07 00:41:38;;;;;;;17.70;16.73;;;;;;;;;;5075753;28;20059;-50
2022/04/07 00:44:08;;;;;;;19.33;18.27;;;;;;;;;;5076275;28;20100;-53
2022/04/07 00:46:33;;;;;;;17.60;16.60;;;;;;;;;;5073329;28;20715;-52
2022/04/07 00:48:59;;;;;;;20.38;19.25;;;;;;;;;;5079816;28;20039;-52
2022/04/07 00:51:24;;;;;;;15.07;14.20;;;;;;;;;;5078427;28;20048;-50
2022/04/07 00:53:49;;;;;;;13.32;12.52;;;;;;;;;;5077644;28;20474;-49
2022/04/07 00:56:15;;;;;;;16.63;15.52;;;;;;;;;;5073907;28;20040;-50
2022/04/07 00:58:42;;;;;;;17.50;16.50;;;;;;;;;;5078236;28;20028;-50
2022/04/07 01:01:08;;;;;;;15.05;14.15;;;;;;;;;;5072661;28;20418;-50
2022/04/07 01:03:34;;;;;;;15.00;14.18;;;;;;;;;;5072564;28;20036;-52
2022/04/07 01:06:01;;;;;;;14.60;13.80;;;;;;;;;;5072928;28;20109;-52
2022/04/07 01:08:26;;;;;;;13.82;13.00;;;;;;;;;;5074586;28;20020;-50
2022/04/07 01:10:52;;;;;;;12.20;11.48;;;;;;;;;;5072052;28;20036;-54
2022/04/07 01:13:19;;;;;;;10.88;10.23;;;;;;;;;;5074281;28;20119;-53
2022/04/07 01:15:44;;;;;;;11.88;11.18;;;;;;;;;;5074350;28;20356;-54
2022/04/07 01:18:10;;;;;;;12.07;11.38;;;;;;;;;;5071116;28;20038;-50
2022/04/07 01:20:36;;;;;;;8.73;8.13;;;;;;;;;;5077046;28;20064;-53
2022/04/07 01:23:02;;;;;;;8.15;7.63;;;;;;;;;;5074068;28;20066;-50
2022/04/07 01:25:27;;;;;;;8.07;7.35;;;;;;;;;;5074841;28;20470;-52
2022/04/07 01:27:54;;;;;;;8.43;7.68;;;;;;;;;;5076445;28;20024;-55
2022/04/07 01:30:20;;;;;;;6.88;6.38;;;;;;;;;;5076466;28;20047;-54
2022/04/07 01:32:56;;;;;;;9.07;8.48;;;;;;;;;;5073898;28;20467;-50
2022/04/07 01:35:24;;;;;;;7.88;7.38;;;;;;;;;;5059134;28;20369;-53
2022/04/07 01:37:52;;;;;;;7.13;6.63;;;;;;;;;;5071451;28;20033;-53
2022/04/07 01:40:21;;;;;;;7.82;7.32;;;;;;;;;;5075706;28;20348;-50
2022/04/07 01:42:48;;;;;;;6.63;6.03;;;;;;;;;;5074464;28;20135;-50
2022/04/07 01:45:14;;;;;;;6.57;6.07;;;;;;;;;;5075465;28;20035;-54
2022/04/07 01:47:41;;;;;;;6.30;5.90;;;;;;;;;;5072605;28;20127;-52
2022/04/07 01:50:09;;;;;;;6.90;6.40;;;;;;;;;;5076618;28;20028;-52
2022/04/07 01:52:36;;;;;;;6.65;6.20;;;;;;;;;;5076942;28;20338;-53
2022/04/07 01:55:03;;;;;;;5.57;5.18;;;;;;;;;;5079127;28;20036;-53
2022/04/07 01:57:29;;;;;;;7.28;6.78;;;;;;;;;;5074647;28;20469;-53
2022/04/07 01:59:55;;;;;;;5.53;5.13;;;;;;;;;;5075044;28;20127;-59
2022/04/07 02:02:24;;;;;;;5.45;5.05;;;;;;;;;;5073557;28;20143;-59
2022/04/07 02:04:56;;;;;;;6.32;5.93;;;;;;;;;;5078496;28;20081;-59
2022/04/07 02:07:27;;;;;;;4.90;4.50;;;;;;;;;;5071305;28;20051;-59
2022/04/07 02:09:52;;;;;;;7.65;5.90;;;;;;;;;;5077352;28;20042;-50
2022/04/07 02:12:20;;;;;;;5.80;5.40;;;;;;;;;;5075309;28;20142;-53
2022/04/07 02:14:46;;;;;;;7.18;6.63;;;;;;;;;;5075869;28;20032;-52
2022/04/07 02:17:12;;;;;;;5.70;5.30;;;;;;;;;;5073593;28;20166;-52
2022/04/07 02:19:37;;;;;;;6.65;6.18;;;;;;;;;;5076700;28;20482;-52
2022/04/07 02:22:03;;;;;;;5.43;5.03;;;;;;;;;;5079739;28;20040;-54
2022/04/07 02:24:28;;;;;;;4.90;4.50;;;;;;;;;;5078510;28;20021;-59
2022/04/07 02:26:54;;;;;;;4.95;4.55;;;;;;;;;;5076847;28;20063;-59
2022/04/07 02:29:19;;;;;;;5.90;5.50;;;;;;;;;;5078074;28;20024;-59
2022/04/07 02:31:44;;;;;;;5.55;5.15;;;;;;;;;;5077856;28;20055;-50
2022/04/07 02:34:09;;;;;;;4.75;4.35;;;;;;;;;;5077909;28;20020;-50
2022/04/07 02:36:35;;;;;;;4.45;4.13;;;;;;;;;;5078473;28;20435;-59
2022/04/07 02:39:00;;;;;;;5.30;4.90;;;;;;;;;;5076215;28;20399;-59
2022/04/07 02:41:26;;;;;;;6.13;5.72;;;;;;;;;;5079700;28;20660;-59
2022/04/07 02:43:52;;;;;;;4.80;4.40;;;;;;;;;;5079787;28;20058;-51
2022/04/07 02:46:18;;;;;;;5.43;5.03;;;;;;;;;;5079658;28;20048;-53
2022/04/07 02:48:43;;;;;;;5.72;5.25;;;;;;;;;;5079689;28;20042;-59
2022/04/07 02:51:09;;;;;;;5.13;4.72;;;;;;;;;;5079116;28;20070;-59
2022/04/07 02:53:34;;;;;;;5.32;4.93;;;;;;;;;;5076900;28;20094;-59
2022/04/07 02:55:59;;;;;;;5.05;4.65;;;;;;;;;;5083641;28;20353;-53
2022/04/07 02:58:25;;;;;;;4.93;4.53;;;;;;;;;;5079975;28;20448;-53
2022/04/07 03:00:50;;;;;;;6.15;5.38;;;;;;;;;;5081285;28;20043;-51
2022/04/07 03:03:16;;;;;;;5.75;5.25;;;;;;;;;;5075909;28;20385;-53
2022/04/07 03:05:41;;;;;;;5.38;4.97;;;;;;;;;;5077785;28;20047;-50
2022/04/07 03:08:07;;;;;;;5.35;4.95;;;;;;;;;;5080426;28;20445;-51
2022/04/07 03:10:32;;;;;;;5.22;4.82;;;;;;;;;;5077786;28;20499;-52
2022/04/07 03:12:57;;;;;;;5.40;5.00;;;;;;;;;;5076474;28;20408;-51
2022/04/07 03:15:23;;;;;;;4.65;4.25;;;;;;;;;;5078102;28;20036;-54
2022/04/07 03:17:48;;;;;;;5.22;4.82;;;;;;;;;;5075514;28;20451;-51
2022/04/07 03:20:14;;;;;;;4.50;4.15;;;;;;;;;;5075282;28;20111;-53
2022/04/07 03:22:39;;;;;;;4.85;4.45;;;;;;;;;;5078623;28;20120;-50
2022/04/07 03:25:05;;;;;;;4.75;4.35;;;;;;;;;;5073082;28;20039;-49
2022/04/07 03:27:31;;;;;;;4.97;4.57;;;;;;;;;;5076895;28;20047;-48
2022/04/07 03:29:56;;;;;;;4.65;4.25;;;;;;;;;;5079576;28;20044;-49
2022/04/07 03:32:21;;;;;;;4.70;4.30;;;;;;;;;;5058170;28;20024;-49
2022/04/07 03:34:47;;;;;;;5.05;4.65;;;;;;;;;;5083275;28;20590;-49
2022/04/07 03:37:14;;;;;;;5.18;4.78;;;;;;;;;;5080505;28;20071;-52
2022/04/07 03:39:40;;;;;;;5.15;4.75;;;;;;;;;;5074892;28;20338;-60
2022/04/07 03:42:05;;;;;;;4.75;4.35;;;;;;;;;;5075074;28;20101;-60
2022/04/07 03:44:31;;;;;;;4.95;4.55;;;;;;;;;;5078012;28;20115;-59
2022/04/07 03:46:57;;;;;;;5.13;4.72;;;;;;;;;;5075700;28;20111;-60
2022/04/07 03:49:23;;;;;;;5.07;4.68;;;;;;;;;;5078227;28;20166;-60
2022/04/07 03:51:48;;;;;;;5.13;4.72;;;;;;;;;;5078253;28;20491;-59
2022/04/07 03:54:14;;;;;;;4.45;4.05;;;;;;;;;;5073785;28;20563;-60
2022/04/07 03:56:40;;;;;;;5.05;4.65;;;;;;;;;;5076918;28;20473;-60
2022/04/07 03:59:05;;;;;;;5.40;5.00;;;;;;;;;;5077067;28;20040;-60
2022/04/07 04:01:30;;;;;;;4.90;4.50;;;;;;;;;;5075117;28;20113;-59
2022/04/07 04:03:56;;;;;;;5.15;4.75;;;;;;;;;;5074631;28;20590;-60
2022/04/07 04:06:22;;;;;;;5.18;4.78;;;;;;;;;;5080207;28;20488;-60
2022/04/07 04:08:47;;;;;;;5.18;4.78;;;;;;;;;;5077274;28;20103;-60
2022/04/07 04:11:13;;;;;;;5.45;5.05;;;;;;;;;;5076312;28;20407;-60
2022/04/07 04:13:39;;;;;;;4.90;4.50;;;;;;;;;;5076454;28;20028;-59
2022/04/07 04:16:05;;;;;;;4.70;4.30;;;;;;;;;;5076083;28;20113;-60
2022/04/07 04:18:30;;;;;;;5.43;5.03;;;;;;;;;;5072264;28;20064;-60
2022/04/07 04:20:56;;;;;;;4.80;4.40;;;;;;;;;;5078687;28;20137;-60
2022/04/07 04:23:21;;;;;;;4.85;4.45;;;;;;;;;;5072496;28;20033;-60
2022/04/07 04:25:46;;;;;;;4.60;4.20;;;;;;;;;;5077136;28;20035;-60
2022/04/07 04:28:12;;;;;;;4.40;4.00;;;;;;;;;;5078889;28;20040;-59
2022/04/07 04:30:37;;;;;;;5.25;4.85;;;;;;;;;;5074083;28;20526;-59
2022/04/07 04:33:03;;;;;;;5.40;5.00;;;;;;;;;;5072187;28;20040;-60
2022/04/07 04:35:28;;;;;;;7.45;4.78;;;;;;;;;;5077768;28;20052;-60
2022/04/07 04:37:54;;;;;;;5.13;4.72;;;;;;;;;;5073742;28;20720;-60
2022/04/07 04:40:20;;;;;;;4.90;4.50;;;;;;;;;;5073767;28;20557;-60
2022/04/07 04:42:45;;;;;;;4.90;4.50;;;;;;;;;;5077854;28;20055;-59
2022/04/07 04:45:10;;;;;;;5.47;4.97;;;;;;;;;;5074082;28;20042;-60
2022/04/07 04:47:36;;;;;;;5.20;4.80;;;;;;;;;;5072832;28;20117;-59
2022/04/07 04:50:06;;;;;;;5.15;4.75;;;;;;;;;;5079367;28;20161;-58
2022/04/07 04:52:31;;;;;;;4.28;3.97;;;;;;;;;;5074446;28;20037;-58
2022/04/07 04:54:57;;;;;;;4.85;4.45;;;;;;;;;;5074232;28;20492;-59
2022/04/07 04:57:22;;;;;;;5.47;5.07;;;;;;;;;;5072981;28;20040;-59
2022/04/07 04:59:47;;;;;;;4.88;4.43;;;;;;;;;;5075072;28;20042;-59
2022/04/07 05:02:13;;;;;;;4.90;4.50;;;;;;;;;;5075599;28;20038;-59
2022/04/07 05:04:38;;;;;;;4.85;4.45;;;;;;;;;;5078740;28;20055;-59
2022/04/07 05:07:04;;;;;;;4.72;4.32;;;;;;;;;;5075622;28;20033;-59
2022/04/07 05:09:29;;;;;;;4.85;4.45;;;;;;;;;;5073432;28;20033;-59
2022/04/07 05:11:54;;;;;;;5.07;4.57;;;;;;;;;;5075412;28;20082;-59
2022/04/07 05:14:20;;;;;;;6.72;4.72;;;;;;;;;;5074977;28;20038;-59
2022/04/07 05:16:45;;;;;;;4.22;3.92;;;;;;;;;;5072377;28;20036;-58
2022/04/07 05:19:10;;;;;;;4.10;3.80;;;;;;;;;;5071516;28;20127;-59
2022/04/07 05:21:36;;;;;;;4.70;4.30;;;;;;;;;;5065817;28;20659;-59
2022/04/07 05:24:01;;;;;;;5.20;4.80;;;;;;;;;;5072772;28;20071;-59
2022/04/07 05:26:26;;;;;;;5.05;4.65;;;;;;;;;;5076308;28;20532;-59
2022/04/07 05:28:52;;;;;;;4.93;4.53;;;;;;;;;;5075020;28;20381;-59
2022/04/07 05:31:17;;;;;;;4.95;4.55;;;;;;;;;;5071761;28;20369;-53
2022/04/07 05:33:42;;;;;;;5.38;4.97;;;;;;;;;;5078575;28;20442;-52
2022/04/07 05:36:08;;;;;;;5.03;4.63;;;;;;;;;;5078275;28;20037;-51
2022/04/07 05:38:33;;;;;;;18.05;5.32;;;;;;;;;;5075816;28;20029;-59
2022/04/07 05:40:59;;;;;;;4.18;3.88;;;;;;;;;;5073981;28;20028;-59
2022/04/07 05:43:24;;;;;;;4.45;4.13;;;;;;;;;;5072869;28;20028;-53
2022/04/07 05:45:50;;;;;;;4.13;3.83;;;;;;;;;;5071431;28;20072;-48
2022/04/07 05:48:17;;;;;;;4.15;3.85;;;;;;;;;;5072592;28;20091;-60
2022/04/07 05:50:43;;;;;;;3.90;3.60;;;;;;;;;;5074737;28;20127;-52
2022/04/07 05:53:10;;;;;;;4.50;4.15;;;;;;;;;;5079306;28;20124;-52
2022/04/07 05:55:36;;;;;;;4.40;4.07;;;;;;;;;;5078806;28;20032;-52
2022/04/07 05:58:05;;;;;;;4.35;4.05;;;;;;;;;;5076451;28;20055;-50
2022/04/07 06:00:31;;;;;;;5.07;4.68;;;;;;;;;;5074817;28;20046;-49
2022/04/07 06:02:57;;;;;;;4.22;3.92;;;;;;;;;;5076232;28;20036;-51
2022/04/07 06:05:22;;;;;;;4.70;4.30;;;;;;;;;;5077561;28;20042;-49
2022/04/07 06:07:48;;;;;;;4.28;3.88;;;;;;;;;;5073991;28;20056;-60
2022/04/07 06:10:14;;;;;;;4.20;3.90;;;;;;;;;;5075215;28;20040;-60
2022/04/07 06:12:42;;;;;;;4.78;4.38;;;;;;;;;;5078079;28;20642;-60
2022/04/07 06:15:11;;;;;;;4.72;4.32;;;;;;;;;;5076614;28;20055;-49
2022/04/07 06:17:39;;;;;;;4.18;3.88;;;;;;;;;;5080163;28;20384;-59
2022/04/07 06:20:10;;;;;;;3.97;3.67;;;;;;;;;;5082251;28;20066;-49
2022/04/07 06:22:35;;;;;;;5.03;4.57;;;;;;;;;;5080003;28;20059;-59
2022/04/07 06:25:01;;;;;;;4.88;4.47;;;;;;;;;;5075471;28;20032;-58
2022/04/07 06:27:35;;;;;;;4.72;4.32;;;;;;;;;;5075796;28;20488;-60
2022/04/07 06:30:05;;;;;;;5.28;4.88;;;;;;;;;;5078336;28;20056;-59
2022/04/07 06:32:31;;;;;;;4.65;4.25;;;;;;;;;;5070454;28;20032;-60
2022/04/07 06:34:56;;;;;;;4.25;3.95;;;;;;;;;;5074581;28;20442;-59
2022/04/07 06:37:21;;;;;;;4.70;4.30;;;;;;;;;;5077351;28;20068;-59
2022/04/07 06:39:47;;;;;;;4.18;3.88;;;;;;;;;;5076621;28;20045;-60
2022/04/07 06:42:12;;;;;;;4.72;4.32;;;;;;;;;;5079692;28;20028;-60
2022/04/07 06:44:37;;;;;;;4.78;4.38;;;;;;;;;;5078912;28;20028;-59
2022/04/07 06:47:03;;;;;;;4.65;4.28;;;;;;;;;;5077515;28;20051;-59
2022/04/07 06:49:28;;;;;;;4.80;4.40;;;;;;;;;;5079986;28;20093;-59
2022/04/07 06:51:54;;;;;;;4.65;4.25;;;;;;;;;;5078956;28;20034;-59
2022/04/07 06:54:19;;;;;;;4.50;4.15;;;;;;;;;;5078148;28;20032;-60
2022/04/07 06:56:44;;;;;;;4.35;4.05;;;;;;;;;;5075433;28;20058;-59
2022/04/07 06:59:10;;;;;;;4.53;4.13;;;;;;;;;;5075518;28;20032;-59
2022/04/07 07:01:35;;;;;;;5.13;4.72;;;;;;;;;;5077703;28;20039;-59
2022/04/07 07:04:00;;;;;;;4.63;4.22;;;;;;;;;;5075522;28;20075;-60
2022/04/07 07:06:26;;;;;;;4.00;3.70;;;;;;;;;;5078370;28;20118;-60
2022/04/07 07:08:51;;;;;;;4.22;3.92;;;;;;;;;;5078710;28;20031;-60
2022/04/07 07:11:16;;;;;;;4.53;4.13;;;;;;;;;;5074642;28;20021;-60
2022/04/07 07:13:42;;;;;;;4.18;3.88;;;;;;;;;;5078747;28;20068;-59
2022/04/07 07:16:07;;;;;;;4.30;4.00;;;;;;;;;;5074587;28;20035;-60
2022/04/07 07:18:32;;;;;;;4.32;4.03;;;;;;;;;;5077524;28;20047;-60
2022/04/07 07:20:58;;;;;;;4.60;4.20;;;;;;;;;;5078731;28;20024;-59
2022/04/07 07:23:23;;;;;;;4.75;4.35;;;;;;;;;;5075595;28;20093;-59
2022/04/07 07:25:49;;;;;;;4.60;4.20;;;;;;;;;;5075507;28;20075;-59
2022/04/07 07:28:14;;;;;;;4.88;4.47;;;;;;;;;;5078590;28;20477;-59
2022/04/07 07:30:39;;;;;;;4.20;3.90;;;;;;;;;;5077106;28;20351;-60
2022/04/07 07:33:05;;;;;;;4.50;4.10;;;;;;;;;;5078224;28;20164;-60
2022/04/07 07:35:30;;;;;;;5.15;4.65;;;;;;;;;;5073928;28;20412;-52
2022/04/07 07:38:00;;;;;;;4.97;4.57;;;;;;;;;;5078432;28;20036;-51
2022/04/07 07:40:31;;;;;;;4.70;4.30;;;;;;;;;;5077971;28;20031;-50
2022/04/07 07:42:58;;;;;;;4.82;4.43;;;;;;;;;;5075988;28;20465;-51
2022/04/07 07:45:24;;;;;;;5.28;4.88;;;;;;;;;;5076541;28;20465;-51
2022/04/07 07:47:53;;;;;;;4.28;3.97;;;;;;;;;;5075364;28;20040;-52
2022/04/07 07:50:18;;;;;;;4.28;3.97;;;;;;;;;;5075931;28;20096;-48
2022/04/07 07:52:44;;;;;;;4.28;3.88;;;;;;;;;;5075553;28;20119;-50
2022/04/07 07:55:09;;;;;;;4.40;4.10;;;;;;;;;;5075778;28;20036;-48
2022/04/07 07:57:34;;;;;;;4.35;4.05;;;;;;;;;;5075865;28;20043;-52
2022/04/07 08:00:00;;;;;;;4.53;4.18;;;;;;;;;;5076792;28;20091;-53
2022/04/07 08:02:26;;;;;;;4.15;3.85;;;;;;;;;;5078206;28;20036;-53
2022/04/07 08:04:52;;;;;;;4.47;4.13;;;;;;;;;;5074978;28;20036;-51
2022/04/07 08:07:18;;;;;;;4.10;3.80;;;;;;;;;;5072577;28;20031;-50
2022/04/07 08:09:43;;;;;;;4.65;4.25;;;;;;;;;;5077265;28;20453;-50
2022/04/07 08:12:09;;;;;;;4.00;3.60;;;;;;;;;;5075876;28;20040;-54
2022/04/07 08:14:35;;;;;;;4.30;4.00;;;;;;;;;;5075321;28;20093;-51
2022/04/07 08:17:02;;;;;;;4.90;4.50;;;;;;;;;;5076662;28;20040;-50
2022/04/07 08:19:27;;;;;;;5.47;3.90;;;;;;;;;;5079805;28;20116;-59
2022/04/07 08:21:53;;;;;;;4.20;3.90;;;;;;;;;;5074853;28;20432;-60
2022/04/07 08:24:20;;;;;;;4.20;3.90;;;;;;;;;;5073790;28;20038;-59
2022/04/07 08:26:46;;;;;;;4.32;4.03;;;;;;;;;;5072331;28;20032;-59
2022/04/07 08:29:11;;;;;;;4.40;4.10;;;;;;;;;;5075458;28;20339;-59
2022/04/07 08:31:37;;;;;;;3.97;3.67;;;;;;;;;;5075443;28;20051;-59
2022/04/07 08:34:02;;;;;;;5.10;4.70;;;;;;;;;;5076009;28;20028;-59
2022/04/07 08:36:28;;;;;;;4.65;4.25;;;;;;;;;;5078904;28;20036;-59
2022/04/07 08:38:53;;;;;;;4.70;4.30;;;;;;;;;;5077302;28;20101;-60
2022/04/07 08:41:19;;;;;;;4.22;3.90;;;;;;;;;;5077131;28;22165;-59
2022/04/07 08:43:44;;;;;;;4.30;4.00;;;;;;;;;;5074075;28;20043;-59
2022/04/07 08:46:11;;;;;;;4.20;3.90;;;;;;;;;;5074232;28;20465;-59
2022/04/07 08:48:42;;;;;;;4.32;4.03;;;;;;;;;;5073425;28;20068;-58
2022/04/07 08:51:09;;;;;;;4.20;3.90;;;;;;;;;;5073729;28;20029;-51
2022/04/07 08:53:35;;;;;;;4.28;3.97;;;;;;;;;;5073946;28;20077;-50
2022/04/07 08:56:02;;;;;;;5.45;5.05;;;;;;;;;;5073581;28;20119;-49
2022/04/07 08:58:28;;;;;;;4.45;4.10;;;;;;;;;;5077057;28;20032;-60
2022/04/07 09:00:53;;;;;;;4.68;4.30;;;;;;;;;;5072137;28;20062;-60
2022/04/07 09:03:18;;;;;;;4.90;4.50;;;;;;;;;;5073114;28;20507;-60
2022/04/07 09:06:02;;;;;;;4.40;4.10;;;;;;;;;;5074940;28;20028;-48
2022/04/07 09:08:32;;;;;;;6.32;5.93;;;;;;;;;;5073120;28;20020;-50
2022/04/07 09:10:59;;;;;;;4.60;4.20;;;;;;;;;;5077905;28;20464;-53
2022/04/07 09:13:29;;;;;;;4.20;3.90;;;;;;;;;;5070428;28;20068;-60
2022/04/07 09:15:54;;;;;;;4.45;4.10;;;;;;;;;;5072002;28;20147;-61
2022/04/07 09:18:24;;;;;;;5.57;5.05;;;;;;;;;;5075726;28;20028;-60
2022/04/07 09:20:50;;;;;;;4.15;3.85;;;;;;;;;;5072109;28;20099;-61
2022/04/07 09:23:17;;;;;;;5.03;4.63;;;;;;;;;;5072569;28;20065;-60
2022/04/07 09:25:49;;;;;;;4.80;4.40;;;;;;;;;;5072427;28;20083;-61
2022/04/07 09:28:31;;;;;;;5.10;4.70;;;;;;;;;;5073017;28;20123;-60
2022/04/07 09:31:00;;;;;;;4.88;4.47;;;;;;;;;;5072056;28;20028;-53
2022/04/07 09:33:27;;;;;;;5.00;4.60;;;;;;;;;;5075927;28;20433;-60
2022/04/07 09:36:07;;;;;;;4.88;4.47;;;;;;;;;;5075408;28;20058;-53
2022/04/07 09:38:34;;;;;;;4.20;3.90;;;;;;;;;;5073479;28;20028;-61
2022/04/07 09:41:11;;;;;;;4.10;3.80;;;;;;;;;;5073463;28;20120;-53
2022/04/07 09:43:57;;;;;;;4.57;4.18;;;;;;;;;;5073997;28;20068;-60
2022/04/07 09:46:23;;;;;;;4.63;4.22;;;;;;;;;;5071382;28;20299;-51
2022/04/07 09:49:05;;;;;;;4.22;3.92;;;;;;;;;;5073317;28;20056;-60
2022/04/07 09:51:40;;;;;;;4.72;4.32;;;;;;;;;;5077370;28;20036;-61
2022/04/07 09:54:09;;;;;;;4.80;4.40;;;;;;;;;;5074833;28;20480;-51
2022/04/07 09:56:35;;;;;;;5.10;4.70;;;;;;;;;;5071547;28;20127;-60
2022/04/07 09:59:02;;;;;;;5.65;5.25;;;;;;;;;;5074184;28;20115;-60
2022/04/07 10:01:28;;;;;;;5.38;4.97;;;;;;;;;;5069638;28;20030;-60
2022/04/07 10:03:55;;;;;;;4.93;4.53;;;;;;;;;;5075555;28;20033;-47
2022/04/07 10:06:21;;;;;;;4.95;4.55;;;;;;;;;;5073780;28;20040;-48
2022/04/07 10:08:49;;;;;;;4.60;4.20;;;;;;;;;;5075830;28;20036;-50
2022/04/07 10:11:15;;;;;;;5.20;4.80;;;;;;;;;;5073950;28;20048;-60
2022/04/07 10:13:43;;;;;;;6.20;5.80;;;;;;;;;;5074586;28;20048;-50
2022/04/07 10:16:10;;;;;;;5.38;4.97;;;;;;;;;;5076113;28;20472;-47
2022/04/07 10:19:00;;;;;;;5.10;4.70;;;;;;;;;;5071882;28;20032;-51
2022/04/07 10:21:46;;;;;;;4.82;4.43;;;;;;;;;;5046670;28;20054;-59
2022/04/07 10:24:19;;;;;;;5.90;5.30;;;;;;;;;;5075096;28;20114;-59
2022/04/07 10:26:47;;;;;;;4.70;4.30;;;;;;;;;;5073947;28;20052;-50
2022/04/07 10:29:22;;;;;;;4.75;4.35;;;;;;;;;;5071786;28;20101;-59
2022/04/07 10:32:12;;;;;;;5.07;4.68;;;;;;;;;;5076441;28;20035;-48
2022/04/07 10:34:53;;;;;;;5.15;4.75;;;;;;;;;;5076640;28;20041;-59
2022/04/07 10:37:31;;;;;;;5.72;4.72;;;;;;;;;;5075739;28;20067;-59
2022/04/07 10:40:35;;;;;;;4.72;4.32;;;;;;;;;;5078113;28;20047;-52
2022/04/07 10:43:10;;;;;;;4.88;4.47;;;;;;;;;;5087155;28;20043;-47
2022/04/07 10:46:05;;;;;;;5.40;5.00;;;;;;;;;;5081783;28;20036;-53
2022/04/07 10:48:43;;;;;;;5.20;4.80;;;;;;;;;;5077451;28;20047;-60
2022/04/07 10:51:10;;;;;;;4.70;4.30;;;;;;;;;;5082758;28;20032;-53
2022/04/07 10:53:51;;;;;;;5.22;4.82;;;;;;;;;;5081687;28;20020;-60
2022/04/07 10:56:25;;;;;;;4.60;4.20;;;;;;;;;;5078513;28;20042;-59
2022/04/07 10:58:57;;;;;;;4.30;4.00;;;;;;;;;;5077395;28;20090;-49
2022/04/07 11:01:31;;;;;;;4.88;4.47;;;;;;;;;;5076043;28;20035;-48
2022/04/07 11:04:16;;;;;;;5.90;5.20;;;;;;;;;;5079030;28;20075;-49
2022/04/07 11:07:19;;;;;;;5.05;4.65;;;;;;;;;;5082541;28;20042;-61
2022/04/07 11:09:50;;;;;;;4.78;4.38;;;;;;;;;;5078726;28;20032;-51
2022/04/07 11:12:22;;;;;;;4.63;4.22;;;;;;;;;;5074986;28;20079;-48
2022/04/07 11:14:50;;;;;;;5.93;5.53;;;;;;;;;;5076837;28;20044;-48
2022/04/07 11:17:23;;;;;;;4.65;4.25;;;;;;;;;;5074794;28;20039;-61
2022/04/07 11:20:15;;;;;;;6.05;5.65;;;;;;;;;;5076641;28;20113;-50
2022/04/07 11:23:09;;;;;;;4.70;4.30;;;;;;;;;;5079571;28;20047;-51
2022/04/07 11:25:42;;;;;;;6.25;5.28;;;;;;;;;;5074349;28;20119;-48
2022/04/07 11:28:24;;;;;;;4.85;4.45;;;;;;;;;;5077012;28;20396;-47
2022/04/07 11:31:00;;;;;;;4.63;4.22;;;;;;;;;;5077997;28;20032;-51
2022/04/07 11:33:27;;;;;;;4.60;4.20;;;;;;;;;;5075933;28;20032;-48
2022/04/07 11:35:59;;;;;;;5.50;5.10;;;;;;;;;;5077167;28;20079;-49
2022/04/07 11:38:42;;;;;;;7.43;6.93;;;;;;;;;;5061880;28;20038;-49
2022/04/07 11:41:12;;;;;;;5.88;5.47;;;;;;;;;;5076325;28;20511;-48
2022/04/07 11:43:39;;;;;;;7.20;6.70;;;;;;;;;;5076239;28;20108;-48
2022/04/07 11:46:06;;;;;;;11.35;10.65;;;;;;;;;;5071767;28;20434;-48
2022/04/07 11:48:34;;;;;;;6.90;6.40;;;;;;;;;;5075865;28;20469;-49
2022/04/07 11:51:00;;;;;;;7.68;7.18;;;;;;;;;;5074940;28;20063;-53
2022/04/07 11:53:29;;;;;;;6.60;6.13;;;;;;;;;;5076329;28;20029;-50
2022/04/07 11:56:10;;;;;;;6.03;5.63;;;;;;;;;;5075719;28;20062;-51
2022/04/07 11:58:36;;;;;;;8.63;8.10;;;;;;;;;;5076347;28;20032;-60
2022/04/07 12:01:11;;;;;;;7.40;6.90;;;;;;;;;;5074130;28;20036;-49
2022/04/07 12:03:40;;;;;;;10.45;9.82;;;;;;;;;;5074599;28;20039;-61
2022/04/07 12:06:06;;;;;;;9.75;9.15;;;;;;;;;;5077621;28;20087;-60
2022/04/07 12:08:32;;;;;;;8.25;7.75;;;;;;;;;;5076634;28;20024;-53
2022/04/07 12:10:58;;;;;;;7.95;7.45;;;;;;;;;;5077756;28;20114;-49
2022/04/07 12:13:24;;;;;;;15.50;14.63;;;;;;;;;;5076913;28;20142;-60
2022/04/07 12:15:50;;;;;;;10.05;9.45;;;;;;;;;;5076358;28;20103;-60
2022/04/07 12:18:25;;;;;;;12.40;11.70;;;;;;;;;;5073367;28;20044;-60
2022/04/07 12:21:01;;;;;;;16.90;15.88;;;;;;;;;;5072152;28;20028;-59
2022/04/07 12:23:27;;;;;;;14.70;13.88;;;;;;;;;;5072854;28;20081;-60
2022/04/07 12:26:01;;;;;;;13.88;13.07;;;;;;;;;;5073583;28;20059;-60
2022/04/07 12:28:38;;;;;;;10.57;9.95;;;;;;;;;;5074387;28;20450;-60
2022/04/07 12:31:20;;;;;;;15.88;14.98;;;;;;;;;;5074523;28;20044;-60
2022/04/07 12:33:48;;;;;;;26.83;25.42;;;;;;;;;;5073990;28;20515;-60
2022/04/07 12:36:16;;;;;;;32.70;31.00;;;;;;;;;;5073180;28;20119;-49
2022/04/07 12:39:00;;;;;;;29.92;28.35;;;;;;;;;;5074058;28;20501;-51
2022/04/07 12:41:43;;;;;;;32.40;30.73;;;;;;;;;;5078431;28;20461;-60
2022/04/07 12:44:11;;;;;;;19.73;18.63;;;;;;;;;;5079071;28;20032;-49
2022/04/07 12:46:46;;;;;;;24.65;23.35;;;;;;;;;;5075461;28;20102;-48
2022/04/07 12:49:12;;;;;;;31.63;30.02;;;;;;;;;;5074346;28;20029;-60
2022/04/07 12:51:39;;;;;;;40.22;38.20;;;;;;;;;;5073140;28;20640;-49
2022/04/07 12:54:12;;;;;;;39.78;37.78;;;;;;;;;;5075780;28;20035;-48
2022/04/07 12:56:40;;;;;;;34.78;32.97;;;;;;;;;;5072982;28;20189;-49
2022/04/07 12:59:09;;;;;;;34.72;32.83;;;;;;;;;;5073313;28;20056;-49
2022/04/07 13:01:35;;;;;;;30.83;29.23;;;;;;;;;;5070020;28;20170;-47
2022/04/07 13:04:04;;;;;;;38.22;36.28;;;;;;;;;;5074774;28;20055;-60
2022/04/07 13:06:30;;;;;;;34.17;32.42;;;;;;;;;;5079808;28;20089;-60
2022/04/07 13:08:56;;;;;;;35.42;33.63;;;;;;;;;;5076459;28;20032;-60
2022/04/07 13:11:40;;;;;;;30.98;29.35;;;;;;;;;;5073260;28;20032;-60
2022/04/07 13:14:07;;;;;;;29.80;28.25;;;;;;;;;;5074584;28;20024;-50
2022/04/07 13:16:34;;;;;;;22.20;21.00;;;;;;;;;;5072351;28;20036;-50
2022/04/07 13:19:00;;;;;;;13.68;12.88;;;;;;;;;;5075519;28;20358;-49
2022/04/07 13:21:26;;;;;;;11.75;10.95;;;;;;;;;;5066440;28;20036;-55
2022/04/07 13:23:52;;;;;;;9.23;8.63;;;;;;;;;;5074142;28;20035;-48
2022/04/07 13:26:18;;;;;;;8.82;8.23;;;;;;;;;;5071059;28;20047;-60
2022/04/07 13:28:46;;;;;;;9.55;8.95;;;;;;;;;;5071821;28;20040;-60
2022/04/07 13:31:12;;;;;;;10.63;9.98;;;;;;;;;;5073129;28;20055;-47
2022/04/07 13:33:37;;;;;;;7.10;6.60;;;;;;;;;;5073946;28;20396;-60
2022/04/07 13:36:03;;;;;;;7.07;6.57;;;;;;;;;;5071509;28;20115;-47
2022/04/07 13:38:28;;;;;;;5.75;5.35;;;;;;;;;;5075620;28;20033;-50
2022/04/07 13:40:54;;;;;;;6.65;6.20;;;;;;;;;;5074931;28;20069;-48
2022/04/07 13:43:20;;;;;;;6.13;5.72;;;;;;;;;;5075841;28;20461;-49
2022/04/07 13:45:45;;;;;;;5.93;5.53;;;;;;;;;;5076204;28;20032;-59
2022/04/07 13:48:11;;;;;;;5.60;5.20;;;;;;;;;;5075361;28;20051;-60
2022/04/07 13:50:41;;;;;;;6.40;5.90;;;;;;;;;;5073492;28;20051;-60
2022/04/07 13:53:08;;;;;;;11.13;5.43;;;;;;;;;;5071190;28;20357;-50
2022/04/07 13:55:34;;;;;;;5.30;4.90;;;;;;;;;;5072359;28;20025;-47
2022/04/07 13:57:59;;;;;;;5.75;5.35;;;;;;;;;;5071886;28;20047;-60
2022/04/07 14:00:25;;;;;;;5.82;5.20;;;;;;;;;;5073466;28;20024;-51
2022/04/07 14:02:51;;;;;;;5.13;4.72;;;;;;;;;;5074615;28;20054;-50
2022/04/07 14:05:16;;;;;;;4.80;4.40;;;;;;;;;;5078042;28;20032;-53
2022/04/07 14:07:42;;;;;;;4.93;4.53;;;;;;;;;;5076124;28;20036;-51
2022/04/07 14:10:10;;;;;;;4.55;4.20;;;;;;;;;;5077100;28;20135;-51
2022/04/07 14:12:35;;;;;;;5.10;4.70;;;;;;;;;;5072512;28;20028;-60
2022/04/07 14:15:00;;;;;;;4.95;4.55;;;;;;;;;;5078474;28;20047;-61
2022/04/07 14:17:26;;;;;;;4.95;4.55;;;;;;;;;;5076813;28;20032;-48
2022/04/07 14:19:51;;;;;;;5.15;4.75;;;;;;;;;;5081704;28;20089;-51
2022/04/07 14:22:16;;;;;;;8.13;5.05;;;;;;;;;;5077735;28;20036;-49
2022/04/07 14:24:42;;;;;;;5.75;5.35;;;;;;;;;;5074831;28;20040;-49
2022/04/07 14:27:07;;;;;;;5.88;5.47;;;;;;;;;;5080828;28;20039;-61
2022/04/07 14:29:32;;;;;;;5.35;4.95;;;;;;;;;;5080711;28;20031;-61
2022/04/07 14:31:58;;;;;;;5.15;4.75;;;;;;;;;;5080687;28;20032;-49
2022/04/07 14:34:23;;;;;;;7.50;5.20;;;;;;;;;;5077822;28;20020;-50
2022/04/07 14:36:49;;;;;;;5.15;4.75;;;;;;;;;;5075396;28;20036;-61
2022/04/07 14:39:15;;;;;;;5.10;4.70;;;;;;;;;;5078103;28;20052;-49
2022/04/07 14:41:40;;;;;;;5.28;4.88;;;;;;;;;;5081728;28;20079;-53